sensor_id;sensor_type;location;lat;lon;timestamp;P1;durP1;ratioP1;P2;durP2;ratioP2
13797;SDS011;6970;51.340;3.240;2023-04-27T00:01:42;7.60;;;5.40;;
13797;SDS011;6970;51.340;3.240;2023-04-27T00:04:09;6.20;;;5.53;;
13797;SDS011;6970;51.340;3.240;2023-04-27T00:06:36;6.90;;;5.67;;
13797;SDS011;6970;51.340;3.240;2023-04-27T00:09:03;9.70;;;6.10;;
13797;SDS011;6970;51.340;3.240;2023-04-27T00:11:30;9.43;;;6.67;;
13797;SDS011;6970;51.340;3.240;2023-04-27T00:13:57;7.40;;;6.07;;
13797;SDS011;6970;51.340;3.240;2023-04-27T00:16:24;6.67;;;5.97;;
13797;SDS011;6970;51.340;3.240;2023-04-27T00:18:52;9.30;;;6.57;;
13797;SDS011;6970;51.340;3.240;2023-04-27T00:21:19;10.80;;;6.70;;
13797;SDS011;6970;51.340;3.240;2023-04-27T00:23:46;7.83;;;6.73;;
13797;SDS011;6970;51.340;3.240;2023-04-27T00:26:13;8.50;;;6.63;;
13797;SDS011;6970;51.340;3.240;2023-04-27T00:28:40;8.00;;;7.20;;
13797;SDS011;6970;51.340;3.240;2023-04-27T00:31:07;11.30;;;6.07;;
13797;SDS011;6970;51.340;3.240;2023-04-27T00:33:34;10.50;;;6.80;;
13797;SDS011;6970;51.340;3.240;2023-04-27T00:36:01;11.50;;;7.53;;
13797;SDS011;6970;51.340;3.240;2023-04-27T00:38:28;9.97;;;7.20;;
13797;SDS011;6970;51.340;3.240;2023-04-27T00:41:02;12.33;;;8.17;;
13797;SDS011;6970;51.340;3.240;2023-04-27T00:43:31;8.47;;;7.23;;
13797;SDS011;6970;51.340;3.240;2023-04-27T00:45:58;9.20;;;7.53;;
13797;SDS011;6970;51.340;3.240;2023-04-27T00:48:26;11.97;;;7.87;;
13797;SDS011;6970;51.340;3.240;2023-04-27T00:50:53;10.10;;;7.90;;
13797;SDS011;6970;51.340;3.240;2023-04-27T00:53:20;9.67;;;8.23;;
13797;SDS011;6970;51.340;3.240;2023-04-27T00:55:47;9.87;;;7.90;;
13797;SDS011;6970;51.340;3.240;2023-04-27T00:58:14;11.17;;;8.57;;
13797;SDS011;6970;51.340;3.240;2023-04-27T01:00:41;12.50;;;8.77;;
13797;SDS011;6970;51.340;3.240;2023-04-27T01:03:10;11.63;;;7.43;;
13797;SDS011;6970;51.340;3.240;2023-04-27T01:05:37;10.83;;;7.70;;
13797;SDS011;6970;51.340;3.240;2023-04-27T01:08:04;11.83;;;7.67;;
13797;SDS011;6970;51.340;3.240;2023-04-27T01:10:31;11.27;;;8.33;;
13797;SDS011;6970;51.340;3.240;2023-04-27T01:12:58;11.50;;;7.57;;
13797;SDS011;6970;51.340;3.240;2023-04-27T01:15:26;8.73;;;7.83;;
13797;SDS011;6970;51.340;3.240;2023-04-27T01:17:59;9.37;;;7.30;;
13797;SDS011;6970;51.340;3.240;2023-04-27T01:20:28;11.93;;;7.03;;
13797;SDS011;6970;51.340;3.240;2023-04-27T01:22:55;9.10;;;7.07;;
13797;SDS011;6970;51.340;3.240;2023-04-27T01:25:24;8.10;;;6.70;;
13797;SDS011;6970;51.340;3.240;2023-04-27T01:27:51;10.60;;;7.03;;
13797;SDS011;6970;51.340;3.240;2023-04-27T01:30:19;8.23;;;6.40;;
13797;SDS011;6970;51.340;3.240;2023-04-27T01:32:48;9.97;;;6.87;;
13797;SDS011;6970;51.340;3.240;2023-04-27T01:35:15;12.00;;;6.50;;
13797;SDS011;6970;51.340;3.240;2023-04-27T01:37:42;8.13;;;7.33;;
13797;SDS011;6970;51.340;3.240;2023-04-27T01:40:09;9.13;;;6.97;;
13797;SDS011;6970;51.340;3.240;2023-04-27T01:42:37;10.23;;;6.80;;
13797;SDS011;6970;51.340;3.240;2023-04-27T01:45:04;8.93;;;7.17;;
13797;SDS011;6970;51.340;3.240;2023-04-27T01:47:32;10.83;;;7.07;;
13797;SDS011;6970;51.340;3.240;2023-04-27T01:49:59;10.07;;;7.50;;
13797;SDS011;6970;51.340;3.240;2023-04-27T01:52:26;9.87;;;7.30;;
13797;SDS011;6970;51.340;3.240;2023-04-27T01:54:54;8.47;;;6.97;;
13797;SDS011;6970;51.340;3.240;2023-04-27T01:57:21;11.37;;;7.40;;
13797;SDS011;6970;51.340;3.240;2023-04-27T01:59:48;9.53;;;7.20;;
13797;SDS011;6970;51.340;3.240;2023-04-27T02:02:15;9.10;;;7.43;;
13797;SDS011;6970;51.340;3.240;2023-04-27T02:04:42;11.70;;;6.73;;
13797;SDS011;6970;51.340;3.240;2023-04-27T02:07:10;9.93;;;7.37;;
13797;SDS011;6970;51.340;3.240;2023-04-27T02:09:37;10.33;;;7.90;;
13797;SDS011;6970;51.340;3.240;2023-04-27T02:12:04;8.23;;;7.43;;
13797;SDS011;6970;51.340;3.240;2023-04-27T02:14:31;11.63;;;7.50;;
13797;SDS011;6970;51.340;3.240;2023-04-27T02:16:59;8.70;;;7.73;;
13797;SDS011;6970;51.340;3.240;2023-04-27T02:19:26;12.20;;;7.77;;
13797;SDS011;6970;51.340;3.240;2023-04-27T02:21:53;12.97;;;8.50;;
13797;SDS011;6970;51.340;3.240;2023-04-27T02:24:20;8.43;;;7.60;;
13797;SDS011;6970;51.340;3.240;2023-04-27T02:26:47;10.43;;;8.10;;
13797;SDS011;6970;51.340;3.240;2023-04-27T02:29:14;9.00;;;7.33;;
13797;SDS011;6970;51.340;3.240;2023-04-27T02:31:42;8.90;;;7.30;;
13797;SDS011;6970;51.340;3.240;2023-04-27T02:34:09;10.07;;;7.60;;
13797;SDS011;6970;51.340;3.240;2023-04-27T02:36:36;10.10;;;7.40;;
13797;SDS011;6970;51.340;3.240;2023-04-27T02:39:03;10.07;;;7.70;;
13797;SDS011;6970;51.340;3.240;2023-04-27T02:41:31;9.73;;;8.30;;
13797;SDS011;6970;51.340;3.240;2023-04-27T02:43:58;11.50;;;7.83;;
13797;SDS011;6970;51.340;3.240;2023-04-27T02:46:25;10.93;;;8.17;;
13797;SDS011;6970;51.340;3.240;2023-04-27T02:48:52;11.83;;;8.13;;
13797;SDS011;6970;51.340;3.240;2023-04-27T02:51:20;11.80;;;8.20;;
13797;SDS011;6970;51.340;3.240;2023-04-27T02:53:48;11.57;;;7.87;;
13797;SDS011;6970;51.340;3.240;2023-04-27T02:56:15;9.00;;;7.70;;
13797;SDS011;6970;51.340;3.240;2023-04-27T02:58:42;13.53;;;9.07;;
13797;SDS011;6970;51.340;3.240;2023-04-27T03:01:10;10.77;;;7.93;;
13797;SDS011;6970;51.340;3.240;2023-04-27T03:03:37;9.27;;;8.27;;
13797;SDS011;6970;51.340;3.240;2023-04-27T03:06:04;10.67;;;8.13;;
13797;SDS011;6970;51.340;3.240;2023-04-27T03:08:32;9.37;;;8.47;;
13797;SDS011;6970;51.340;3.240;2023-04-27T03:10:59;12.30;;;8.03;;
13797;SDS011;6970;51.340;3.240;2023-04-27T03:13:26;10.90;;;7.93;;
13797;SDS011;6970;51.340;3.240;2023-04-27T03:15:53;13.00;;;8.93;;
13797;SDS011;6970;51.340;3.240;2023-04-27T03:18:20;12.20;;;8.90;;
13797;SDS011;6970;51.340;3.240;2023-04-27T03:20:47;12.47;;;8.33;;
13797;SDS011;6970;51.340;3.240;2023-04-27T03:23:14;11.07;;;8.73;;
13797;SDS011;6970;51.340;3.240;2023-04-27T03:25:41;10.93;;;8.33;;
13797;SDS011;6970;51.340;3.240;2023-04-27T03:28:09;11.67;;;9.77;;
13797;SDS011;6970;51.340;3.240;2023-04-27T03:30:38;12.63;;;8.67;;
13797;SDS011;6970;51.340;3.240;2023-04-27T03:33:06;9.97;;;8.60;;
13797;SDS011;6970;51.340;3.240;2023-04-27T03:35:33;10.47;;;9.23;;
13797;SDS011;6970;51.340;3.240;2023-04-27T03:38:00;11.27;;;9.03;;
13797;SDS011;6970;51.340;3.240;2023-04-27T03:40:27;14.27;;;9.17;;
13797;SDS011;6970;51.340;3.240;2023-04-27T03:42:54;13.57;;;9.30;;
13797;SDS011;6970;51.340;3.240;2023-04-27T03:45:24;14.33;;;9.30;;
13797;SDS011;6970;51.340;3.240;2023-04-27T03:47:51;10.83;;;9.50;;
13797;SDS011;6970;51.340;3.240;2023-04-27T03:50:18;14.17;;;9.13;;
13797;SDS011;6970;51.340;3.240;2023-04-27T03:52:45;11.03;;;9.30;;
13797;SDS011;6970;51.340;3.240;2023-04-27T03:55:12;14.30;;;9.53;;
13797;SDS011;6970;51.340;3.240;2023-04-27T03:57:39;11.97;;;9.17;;
13797;SDS011;6970;51.340;3.240;2023-04-27T04:00:07;13.60;;;10.80;;
13797;SDS011;6970;51.340;3.240;2023-04-27T04:02:37;11.67;;;9.13;;
13797;SDS011;6970;51.340;3.240;2023-04-27T04:05:04;16.33;;;10.70;;
13797;SDS011;6970;51.340;3.240;2023-04-27T04:07:33;11.50;;;9.67;;
13797;SDS011;6970;51.340;3.240;2023-04-27T04:10:00;13.57;;;10.27;;
13797;SDS011;6970;51.340;3.240;2023-04-27T04:12:27;11.30;;;9.50;;
13797;SDS011;6970;51.340;3.240;2023-04-27T04:14:55;16.40;;;9.40;;
13797;SDS011;6970;51.340;3.240;2023-04-27T04:17:22;11.40;;;9.73;;
13797;SDS011;6970;51.340;3.240;2023-04-27T04:19:49;18.63;;;9.83;;
13797;SDS011;6970;51.340;3.240;2023-04-27T04:22:16;12.27;;;9.20;;
13797;SDS011;6970;51.340;3.240;2023-04-27T04:24:43;14.57;;;10.10;;
13797;SDS011;6970;51.340;3.240;2023-04-27T04:27:10;13.70;;;10.00;;
13797;SDS011;6970;51.340;3.240;2023-04-27T04:29:37;10.70;;;9.60;;
13797;SDS011;6970;51.340;3.240;2023-04-27T04:32:06;14.17;;;9.53;;
13797;SDS011;6970;51.340;3.240;2023-04-27T04:34:34;12.23;;;9.07;;
13797;SDS011;6970;51.340;3.240;2023-04-27T04:37:01;11.93;;;8.60;;
13797;SDS011;6970;51.340;3.240;2023-04-27T04:39:30;13.77;;;9.63;;
13797;SDS011;6970;51.340;3.240;2023-04-27T04:41:57;14.27;;;8.77;;
13797;SDS011;6970;51.340;3.240;2023-04-27T04:44:24;11.93;;;8.83;;
13797;SDS011;6970;51.340;3.240;2023-04-27T04:46:51;12.73;;;9.50;;
13797;SDS011;6970;51.340;3.240;2023-04-27T04:49:18;14.57;;;9.17;;
13797;SDS011;6970;51.340;3.240;2023-04-27T04:51:45;12.77;;;9.80;;
13797;SDS011;6970;51.340;3.240;2023-04-27T04:54:12;12.30;;;9.23;;
13797;SDS011;6970;51.340;3.240;2023-04-27T04:56:40;11.23;;;9.50;;
13797;SDS011;6970;51.340;3.240;2023-04-27T04:59:07;11.80;;;9.30;;
13797;SDS011;6970;51.340;3.240;2023-04-27T05:01:34;15.10;;;9.33;;
13797;SDS011;6970;51.340;3.240;2023-04-27T05:04:01;11.13;;;9.27;;
13797;SDS011;6970;51.340;3.240;2023-04-27T05:06:29;15.57;;;9.63;;
13797;SDS011;6970;51.340;3.240;2023-04-27T05:08:57;12.50;;;8.60;;
13797;SDS011;6970;51.340;3.240;2023-04-27T05:11:24;12.40;;;8.97;;
13797;SDS011;6970;51.340;3.240;2023-04-27T05:13:51;10.70;;;9.17;;
13797;SDS011;6970;51.340;3.240;2023-04-27T05:16:18;11.53;;;9.17;;
13797;SDS011;6970;51.340;3.240;2023-04-27T05:18:45;12.90;;;9.40;;
13797;SDS011;6970;51.340;3.240;2023-04-27T05:21:13;10.40;;;9.20;;
13797;SDS011;6970;51.340;3.240;2023-04-27T05:23:41;12.17;;;9.50;;
13797;SDS011;6970;51.340;3.240;2023-04-27T05:26:15;13.97;;;9.50;;
13797;SDS011;6970;51.340;3.240;2023-04-27T05:28:43;10.97;;;9.07;;
13797;SDS011;6970;51.340;3.240;2023-04-27T05:31:12;12.43;;;8.90;;
13797;SDS011;6970;51.340;3.240;2023-04-27T05:33:39;10.67;;;8.20;;
13797;SDS011;6970;51.340;3.240;2023-04-27T05:36:06;10.57;;;8.30;;
13797;SDS011;6970;51.340;3.240;2023-04-27T05:38:34;16.27;;;9.33;;
13797;SDS011;6970;51.340;3.240;2023-04-27T05:41:05;13.50;;;8.20;;
13797;SDS011;6970;51.340;3.240;2023-04-27T05:43:32;9.23;;;8.17;;
13797;SDS011;6970;51.340;3.240;2023-04-27T05:46:00;13.17;;;8.47;;
13797;SDS011;6970;51.340;3.240;2023-04-27T05:48:27;12.50;;;8.17;;
13797;SDS011;6970;51.340;3.240;2023-04-27T05:51:01;10.53;;;8.03;;
13797;SDS011;6970;51.340;3.240;2023-04-27T05:53:29;13.73;;;8.53;;
13797;SDS011;6970;51.340;3.240;2023-04-27T05:56:05;11.53;;;8.43;;
13797;SDS011;6970;51.340;3.240;2023-04-27T05:58:32;14.27;;;8.80;;
13797;SDS011;6970;51.340;3.240;2023-04-27T06:01:00;11.43;;;8.27;;
13797;SDS011;6970;51.340;3.240;2023-04-27T06:03:28;11.60;;;7.97;;
13797;SDS011;6970;51.340;3.240;2023-04-27T06:05:56;9.53;;;7.67;;
13797;SDS011;6970;51.340;3.240;2023-04-27T06:08:24;8.80;;;7.57;;
13797;SDS011;6970;51.340;3.240;2023-04-27T06:10:52;13.20;;;8.53;;
13797;SDS011;6970;51.340;3.240;2023-04-27T06:13:19;9.27;;;8.13;;
13797;SDS011;6970;51.340;3.240;2023-04-27T06:15:47;13.23;;;8.87;;
13797;SDS011;6970;51.340;3.240;2023-04-27T06:18:14;9.63;;;8.63;;
13797;SDS011;6970;51.340;3.240;2023-04-27T06:20:41;12.77;;;9.77;;
13797;SDS011;6970;51.340;3.240;2023-04-27T06:23:08;13.90;;;10.50;;
13797;SDS011;6970;51.340;3.240;2023-04-27T06:25:35;15.27;;;10.53;;
13797;SDS011;6970;51.340;3.240;2023-04-27T06:28:04;16.57;;;11.37;;
13797;SDS011;6970;51.340;3.240;2023-04-27T06:30:31;21.13;;;12.13;;
13797;SDS011;6970;51.340;3.240;2023-04-27T06:32:58;18.97;;;11.80;;
13797;SDS011;6970;51.340;3.240;2023-04-27T06:35:25;18.43;;;13.30;;
13797;SDS011;6970;51.340;3.240;2023-04-27T06:37:52;16.70;;;12.67;;
13797;SDS011;6970;51.340;3.240;2023-04-27T06:40:24;20.27;;;14.13;;
13797;SDS011;6970;51.340;3.240;2023-04-27T06:42:52;18.43;;;14.80;;
13797;SDS011;6970;51.340;3.240;2023-04-27T06:45:19;21.43;;;14.37;;
13797;SDS011;6970;51.340;3.240;2023-04-27T06:47:46;21.10;;;14.13;;
13797;SDS011;6970;51.340;3.240;2023-04-27T06:50:13;24.63;;;16.00;;
13797;SDS011;6970;51.340;3.240;2023-04-27T06:52:41;23.63;;;15.13;;
13797;SDS011;6970;51.340;3.240;2023-04-27T06:55:08;20.17;;;15.83;;
13797;SDS011;6970;51.340;3.240;2023-04-27T06:57:36;21.70;;;17.30;;
13797;SDS011;6970;51.340;3.240;2023-04-27T07:00:03;36.43;;;19.80;;
13797;SDS011;6970;51.340;3.240;2023-04-27T07:02:30;30.40;;;21.97;;
13797;SDS011;6970;51.340;3.240;2023-04-27T07:04:57;36.07;;;24.00;;
13797;SDS011;6970;51.340;3.240;2023-04-27T07:07:24;31.13;;;21.23;;
13797;SDS011;6970;51.340;3.240;2023-04-27T07:09:51;28.53;;;19.77;;
13797;SDS011;6970;51.340;3.240;2023-04-27T07:12:19;27.03;;;17.97;;
13797;SDS011;6970;51.340;3.240;2023-04-27T07:14:46;26.50;;;17.47;;
13797;SDS011;6970;51.340;3.240;2023-04-27T07:17:15;26.43;;;16.17;;
13797;SDS011;6970;51.340;3.240;2023-04-27T07:19:42;25.20;;;16.40;;
13797;SDS011;6970;51.340;3.240;2023-04-27T07:22:09;20.80;;;15.83;;
13797;SDS011;6970;51.340;3.240;2023-04-27T07:24:37;21.53;;;15.50;;
13797;SDS011;6970;51.340;3.240;2023-04-27T07:27:04;21.37;;;15.80;;
13797;SDS011;6970;51.340;3.240;2023-04-27T07:29:31;20.67;;;15.77;;
13797;SDS011;6970;51.340;3.240;2023-04-27T07:31:58;21.10;;;17.23;;
13797;SDS011;6970;51.340;3.240;2023-04-27T07:34:25;23.57;;;16.00;;
13797;SDS011;6970;51.340;3.240;2023-04-27T07:37:00;21.83;;;17.43;;
13797;SDS011;6970;51.340;3.240;2023-04-27T07:39:27;24.57;;;18.23;;
13797;SDS011;6970;51.340;3.240;2023-04-27T07:41:54;27.87;;;18.67;;
13797;SDS011;6970;51.340;3.240;2023-04-27T07:44:21;28.43;;;18.73;;
13797;SDS011;6970;51.340;3.240;2023-04-27T07:46:48;23.90;;;19.07;;
13797;SDS011;6970;51.340;3.240;2023-04-27T07:49:15;22.50;;;17.93;;
13797;SDS011;6970;51.340;3.240;2023-04-27T07:51:42;26.90;;;19.23;;
13797;SDS011;6970;51.340;3.240;2023-04-27T07:54:09;23.30;;;17.37;;
13797;SDS011;6970;51.340;3.240;2023-04-27T07:56:39;27.27;;;18.40;;
13797;SDS011;6970;51.340;3.240;2023-04-27T07:59:07;28.03;;;20.33;;
13797;SDS011;6970;51.340;3.240;2023-04-27T08:01:34;25.90;;;18.93;;
13797;SDS011;6970;51.340;3.240;2023-04-27T08:04:01;27.20;;;20.73;;
13797;SDS011;6970;51.340;3.240;2023-04-27T08:06:29;26.37;;;19.27;;
13797;SDS011;6970;51.340;3.240;2023-04-27T08:08:57;25.53;;;19.43;;
13797;SDS011;6970;51.340;3.240;2023-04-27T08:11:26;28.03;;;18.90;;
13797;SDS011;6970;51.340;3.240;2023-04-27T08:13:53;28.37;;;19.10;;
13797;SDS011;6970;51.340;3.240;2023-04-27T08:16:20;23.97;;;18.67;;
13797;SDS011;6970;51.340;3.240;2023-04-27T08:18:48;24.03;;;18.23;;
13797;SDS011;6970;51.340;3.240;2023-04-27T08:21:15;21.40;;;17.33;;
13797;SDS011;6970;51.340;3.240;2023-04-27T08:23:42;22.67;;;17.80;;
13797;SDS011;6970;51.340;3.240;2023-04-27T08:26:13;25.17;;;17.90;;
13797;SDS011;6970;51.340;3.240;2023-04-27T08:28:41;23.47;;;18.10;;
13797;SDS011;6970;51.340;3.240;2023-04-27T08:31:08;22.10;;;18.50;;
13797;SDS011;6970;51.340;3.240;2023-04-27T08:33:35;29.70;;;20.77;;
13797;SDS011;6970;51.340;3.240;2023-04-27T08:36:03;26.93;;;20.23;;
13797;SDS011;6970;51.340;3.240;2023-04-27T08:38:33;26.63;;;20.20;;
13797;SDS011;6970;51.340;3.240;2023-04-27T08:41:01;26.67;;;20.47;;
13797;SDS011;6970;51.340;3.240;2023-04-27T08:43:45;29.17;;;20.70;;
13797;SDS011;6970;51.340;3.240;2023-04-27T08:46:21;21.93;;;18.70;;
13797;SDS011;6970;51.340;3.240;2023-04-27T08:48:52;24.93;;;19.17;;
13797;SDS011;6970;51.340;3.240;2023-04-27T08:51:20;24.23;;;18.53;;
13797;SDS011;6970;51.340;3.240;2023-04-27T08:53:48;23.90;;;18.83;;
13797;SDS011;6970;51.340;3.240;2023-04-27T08:56:17;24.60;;;18.60;;
13797;SDS011;6970;51.340;3.240;2023-04-27T08:58:45;24.97;;;18.57;;
13797;SDS011;6970;51.340;3.240;2023-04-27T09:01:12;24.20;;;17.50;;
13797;SDS011;6970;51.340;3.240;2023-04-27T09:03:39;24.97;;;18.07;;
13797;SDS011;6970;51.340;3.240;2023-04-27T09:06:08;23.77;;;18.83;;
13797;SDS011;6970;51.340;3.240;2023-04-27T09:08:42;26.47;;;19.20;;
13797;SDS011;6970;51.340;3.240;2023-04-27T09:11:14;24.23;;;17.57;;
13797;SDS011;6970;51.340;3.240;2023-04-27T09:13:42;23.83;;;18.77;;
13797;SDS011;6970;51.340;3.240;2023-04-27T09:16:11;21.27;;;18.57;;
13797;SDS011;6970;51.340;3.240;2023-04-27T09:18:42;20.20;;;18.03;;
13797;SDS011;6970;51.340;3.240;2023-04-27T09:21:09;22.47;;;17.00;;
13797;SDS011;6970;51.340;3.240;2023-04-27T09:23:37;26.00;;;20.00;;
13797;SDS011;6970;51.340;3.240;2023-04-27T09:26:07;23.97;;;18.87;;
13797;SDS011;6970;51.340;3.240;2023-04-27T09:28:36;21.73;;;16.93;;
13797;SDS011;6970;51.340;3.240;2023-04-27T09:31:04;25.47;;;17.70;;
13797;SDS011;6970;51.340;3.240;2023-04-27T09:33:34;19.30;;;15.97;;
13797;SDS011;6970;51.340;3.240;2023-04-27T09:36:03;23.33;;;16.83;;
13797;SDS011;6970;51.340;3.240;2023-04-27T09:38:31;22.17;;;17.00;;
13797;SDS011;6970;51.340;3.240;2023-04-27T09:40:59;16.37;;;13.77;;
13797;SDS011;6970;51.340;3.240;2023-04-27T09:43:26;14.80;;;13.00;;
13797;SDS011;6970;51.340;3.240;2023-04-27T09:45:55;15.17;;;11.97;;
13797;SDS011;6970;51.340;3.240;2023-04-27T09:48:24;12.40;;;11.10;;
13797;SDS011;6970;51.340;3.240;2023-04-27T09:50:52;14.40;;;10.63;;
13797;SDS011;6970;51.340;3.240;2023-04-27T09:53:24;12.67;;;10.70;;
13797;SDS011;6970;51.340;3.240;2023-04-27T09:56:35;12.20;;;9.87;;
13797;SDS011;6970;51.340;3.240;2023-04-27T10:01:48;10.27;;;8.63;;
13797;SDS011;6970;51.340;3.240;2023-04-27T10:07:20;10.13;;;7.90;;
13797;SDS011;6970;51.340;3.240;2023-04-27T10:09:48;9.43;;;7.33;;
13797;SDS011;6970;51.340;3.240;2023-04-27T10:12:26;15.03;;;8.27;;
13797;SDS011;6970;51.340;3.240;2023-04-27T10:14:55;12.40;;;8.50;;
13797;SDS011;6970;51.340;3.240;2023-04-27T10:17:24;8.90;;;7.60;;
13797;SDS011;6970;51.340;3.240;2023-04-27T10:19:56;8.53;;;7.70;;
13797;SDS011;6970;51.340;3.240;2023-04-27T10:22:35;9.33;;;8.27;;
13797;SDS011;6970;51.340;3.240;2023-04-27T10:25:17;8.73;;;7.83;;
13797;SDS011;6970;51.340;3.240;2023-04-27T10:27:52;9.57;;;8.53;;
13797;SDS011;6970;51.340;3.240;2023-04-27T10:30:25;12.60;;;9.33;;
13797;SDS011;6970;51.340;3.240;2023-04-27T10:32:59;11.87;;;9.47;;
13797;SDS011;6970;51.340;3.240;2023-04-27T10:35:39;15.53;;;8.97;;
13797;SDS011;6970;51.340;3.240;2023-04-27T10:38:19;10.60;;;7.80;;
13797;SDS011;6970;51.340;3.240;2023-04-27T10:40:58;8.33;;;7.53;;
13797;SDS011;6970;51.340;3.240;2023-04-27T10:43:32;12.23;;;8.70;;
13797;SDS011;6970;51.340;3.240;2023-04-27T10:46:34;11.77;;;9.60;;
13797;SDS011;6970;51.340;3.240;2023-04-27T10:48:54;9.83;;;8.53;;
13797;SDS011;6970;51.340;3.240;2023-04-27T10:51:21;18.33;;;10.83;;
13797;SDS011;6970;51.340;3.240;2023-04-27T10:53:53;12.50;;;9.77;;
13797;SDS011;6970;51.340;3.240;2023-04-27T10:56:20;10.13;;;8.87;;
13797;SDS011;6970;51.340;3.240;2023-04-27T10:58:48;11.13;;;9.17;;
13797;SDS011;6970;51.340;3.240;2023-04-27T11:01:22;9.67;;;8.27;;
13797;SDS011;6970;51.340;3.240;2023-04-27T11:03:56;13.07;;;9.40;;
13797;SDS011;6970;51.340;3.240;2023-04-27T11:06:27;10.23;;;9.17;;
13797;SDS011;6970;51.340;3.240;2023-04-27T11:08:57;10.93;;;9.27;;
13797;SDS011;6970;51.340;3.240;2023-04-27T11:11:25;12.30;;;8.80;;
13797;SDS011;6970;51.340;3.240;2023-04-27T11:13:53;10.43;;;9.00;;
13797;SDS011;6970;51.340;3.240;2023-04-27T11:16:21;9.03;;;8.13;;
13797;SDS011;6970;51.340;3.240;2023-04-27T11:18:49;9.30;;;8.33;;
13797;SDS011;6970;51.340;3.240;2023-04-27T11:21:17;10.10;;;8.03;;
13797;SDS011;6970;51.340;3.240;2023-04-27T11:23:45;10.23;;;8.40;;
13797;SDS011;6970;51.340;3.240;2023-04-27T11:28:42;12.87;;;8.40;;
13797;SDS011;6970;51.340;3.240;2023-04-27T11:31:10;9.73;;;8.07;;
13797;SDS011;6970;51.340;3.240;2023-04-27T11:33:37;10.27;;;8.40;;
13797;SDS011;6970;51.340;3.240;2023-04-27T11:36:17;10.13;;;9.13;;
13797;SDS011;6970;51.340;3.240;2023-04-27T11:38:45;9.63;;;8.80;;
13797;SDS011;6970;51.340;3.240;2023-04-27T11:41:12;11.97;;;7.97;;
13797;SDS011;6970;51.340;3.240;2023-04-27T11:43:41;8.77;;;7.83;;
13797;SDS011;6970;51.340;3.240;2023-04-27T11:46:11;9.93;;;8.93;;
13797;SDS011;6970;51.340;3.240;2023-04-27T11:48:39;9.00;;;7.70;;
13797;SDS011;6970;51.340;3.240;2023-04-27T11:51:08;9.20;;;8.20;;
13797;SDS011;6970;51.340;3.240;2023-04-27T11:53:37;9.57;;;7.03;;
13797;SDS011;6970;51.340;3.240;2023-04-27T11:56:05;9.47;;;8.00;;
13797;SDS011;6970;51.340;3.240;2023-04-27T11:58:36;10.53;;;8.03;;
13797;SDS011;6970;51.340;3.240;2023-04-27T12:01:05;8.87;;;7.97;;
13797;SDS011;6970;51.340;3.240;2023-04-27T12:03:33;7.63;;;6.97;;
13797;SDS011;6970;51.340;3.240;2023-04-27T12:06:01;8.50;;;7.43;;
13797;SDS011;6970;51.340;3.240;2023-04-27T12:08:30;9.87;;;7.60;;
13797;SDS011;6970;51.340;3.240;2023-04-27T12:10:57;12.33;;;9.07;;
13797;SDS011;6970;51.340;3.240;2023-04-27T12:13:25;9.23;;;8.27;;
13797;SDS011;6970;51.340;3.240;2023-04-27T12:15:52;8.00;;;7.30;;
13797;SDS011;6970;51.340;3.240;2023-04-27T12:18:19;11.73;;;7.40;;
13797;SDS011;6970;51.340;3.240;2023-04-27T12:20:47;8.90;;;7.53;;
13797;SDS011;6970;51.340;3.240;2023-04-27T12:23:14;9.23;;;7.90;;
13797;SDS011;6970;51.340;3.240;2023-04-27T12:25:41;7.83;;;6.63;;
13797;SDS011;6970;51.340;3.240;2023-04-27T12:28:10;7.93;;;7.20;;
13797;SDS011;6970;51.340;3.240;2023-04-27T12:30:37;8.47;;;7.67;;
13797;SDS011;6970;51.340;3.240;2023-04-27T12:33:04;8.13;;;7.33;;
13797;SDS011;6970;51.340;3.240;2023-04-27T12:35:36;8.10;;;7.13;;
13797;SDS011;6970;51.340;3.240;2023-04-27T12:38:03;10.20;;;8.20;;
13797;SDS011;6970;51.340;3.240;2023-04-27T12:40:31;11.93;;;9.07;;
13797;SDS011;6970;51.340;3.240;2023-04-27T12:42:58;8.03;;;7.23;;
13797;SDS011;6970;51.340;3.240;2023-04-27T12:45:26;9.20;;;7.63;;
13797;SDS011;6970;51.340;3.240;2023-04-27T12:47:53;9.20;;;7.77;;
13797;SDS011;6970;51.340;3.240;2023-04-27T12:50:29;9.77;;;8.03;;
13797;SDS011;6970;51.340;3.240;2023-04-27T12:52:58;9.40;;;8.50;;
13797;SDS011;6970;51.340;3.240;2023-04-27T12:55:25;9.53;;;7.97;;
13797;SDS011;6970;51.340;3.240;2023-04-27T12:57:55;9.13;;;7.50;;
13797;SDS011;6970;51.340;3.240;2023-04-27T13:00:24;10.03;;;8.37;;
13797;SDS011;6970;51.340;3.240;2023-04-27T13:02:51;9.73;;;7.87;;
13797;SDS011;6970;51.340;3.240;2023-04-27T13:05:19;8.83;;;7.70;;
13797;SDS011;6970;51.340;3.240;2023-04-27T13:07:47;11.47;;;8.23;;
13797;SDS011;6970;51.340;3.240;2023-04-27T13:10:14;9.03;;;8.23;;
13797;SDS011;6970;51.340;3.240;2023-04-27T13:12:41;10.27;;;9.10;;
13797;SDS011;6970;51.340;3.240;2023-04-27T13:15:08;10.30;;;9.30;;
13797;SDS011;6970;51.340;3.240;2023-04-27T13:17:36;7.70;;;7.00;;
13797;SDS011;6970;51.340;3.240;2023-04-27T13:20:03;9.10;;;8.00;;
13797;SDS011;6970;51.340;3.240;2023-04-27T13:22:31;8.63;;;7.83;;
13797;SDS011;6970;51.340;3.240;2023-04-27T13:24:58;9.53;;;8.40;;
13797;SDS011;6970;51.340;3.240;2023-04-27T13:27:26;8.63;;;7.80;;
13797;SDS011;6970;51.340;3.240;2023-04-27T13:29:54;10.40;;;8.33;;
13797;SDS011;6970;51.340;3.240;2023-04-27T13:32:21;10.73;;;8.27;;
13797;SDS011;6970;51.340;3.240;2023-04-27T13:34:48;9.33;;;8.37;;
13797;SDS011;6970;51.340;3.240;2023-04-27T13:37:16;12.27;;;8.97;;
13797;SDS011;6970;51.340;3.240;2023-04-27T13:39:43;8.70;;;7.80;;
13797;SDS011;6970;51.340;3.240;2023-04-27T13:42:10;12.20;;;8.27;;
13797;SDS011;6970;51.340;3.240;2023-04-27T13:44:37;13.83;;;9.37;;
13797;SDS011;6970;51.340;3.240;2023-04-27T13:47:04;9.33;;;8.00;;
13797;SDS011;6970;51.340;3.240;2023-04-27T13:49:33;9.50;;;7.83;;
13797;SDS011;6970;51.340;3.240;2023-04-27T13:52:00;8.73;;;7.73;;
13797;SDS011;6970;51.340;3.240;2023-04-27T13:54:27;9.57;;;8.50;;
13797;SDS011;6970;51.340;3.240;2023-04-27T13:56:54;10.90;;;8.73;;
13797;SDS011;6970;51.340;3.240;2023-04-27T13:59:23;11.47;;;8.17;;
13797;SDS011;6970;51.340;3.240;2023-04-27T14:01:51;9.83;;;8.13;;
13797;SDS011;6970;51.340;3.240;2023-04-27T14:04:18;9.70;;;8.70;;
13797;SDS011;6970;51.340;3.240;2023-04-27T14:06:45;8.73;;;7.93;;
13797;SDS011;6970;51.340;3.240;2023-04-27T14:09:13;11.07;;;8.67;;
13797;SDS011;6970;51.340;3.240;2023-04-27T14:11:41;10.33;;;8.80;;
13797;SDS011;6970;51.340;3.240;2023-04-27T14:14:22;9.33;;;8.43;;
13797;SDS011;6970;51.340;3.240;2023-04-27T14:16:49;11.57;;;8.77;;
13797;SDS011;6970;51.340;3.240;2023-04-27T14:19:16;10.07;;;9.17;;
13797;SDS011;6970;51.340;3.240;2023-04-27T14:21:46;10.73;;;8.37;;
13797;SDS011;6970;51.340;3.240;2023-04-27T14:24:17;9.67;;;8.67;;
13797;SDS011;6970;51.340;3.240;2023-04-27T14:26:44;9.60;;;8.70;;
13797;SDS011;6970;51.340;3.240;2023-04-27T14:29:12;8.57;;;7.77;;
13797;SDS011;6970;51.340;3.240;2023-04-27T14:31:40;9.87;;;8.07;;
13797;SDS011;6970;51.340;3.240;2023-04-27T14:34:08;10.07;;;8.97;;
13797;SDS011;6970;51.340;3.240;2023-04-27T14:36:35;8.93;;;8.13;;
13797;SDS011;6970;51.340;3.240;2023-04-27T14:39:03;8.83;;;8.00;;
13797;SDS011;6970;51.340;3.240;2023-04-27T14:41:32;8.80;;;7.93;;
13797;SDS011;6970;51.340;3.240;2023-04-27T14:44:00;9.43;;;8.37;;
13797;SDS011;6970;51.340;3.240;2023-04-27T14:46:27;9.67;;;8.10;;
13797;SDS011;6970;51.340;3.240;2023-04-27T14:48:54;9.67;;;8.50;;
13797;SDS011;6970;51.340;3.240;2023-04-27T14:51:21;9.50;;;8.60;;
13797;SDS011;6970;51.340;3.240;2023-04-27T14:53:48;9.47;;;8.20;;
13797;SDS011;6970;51.340;3.240;2023-04-27T14:56:15;13.43;;;8.93;;
13797;SDS011;6970;51.340;3.240;2023-04-27T14:58:42;9.83;;;8.83;;
13797;SDS011;6970;51.340;3.240;2023-04-27T15:01:09;11.77;;;8.43;;
13797;SDS011;6970;51.340;3.240;2023-04-27T15:03:36;9.67;;;8.67;;